createdAt,value
2023-01-27T02:26:43.040Z,99913.52
2023-01-27T02:29:14.798Z,99916.48
2023-01-27T02:31:43.751Z,99918.55
2023-01-27T02:34:17.427Z,99918.96
2023-01-27T02:36:49.559Z,99921.86
2023-01-27T02:39:19.752Z,99921.27
2023-01-27T02:41:50.335Z,99924.20
2023-01-27T02:44:19.101Z,99920.44
2023-01-27T02:46:47.892Z,99925.77
2023-01-27T02:49:16.285Z,99931.48
2023-01-27T02:51:45.779Z,99934.33
2023-01-27T02:54:14.159Z,99934.06
2023-01-27T02:56:42.957Z,99929.06
2023-01-27T02:59:13.480Z,99923.19
2023-01-27T03:01:43.021Z,99917.17
2023-01-27T03:04:12.291Z,99920.39
2023-01-27T03:06:44.152Z,99919.17
2023-01-27T03:09:12.745Z,99917.31
2023-01-27T03:11:59.863Z,99918.00
2023-01-27T03:14:48.000Z,99913.73
2023-01-27T03:17:35.836Z,99909.00
2023-01-27T03:20:05.159Z,99906.88
2023-01-27T03:22:33.822Z,99905.48
2023-01-27T03:25:03.435Z,99903.20
2023-01-27T03:27:32.119Z,99904.98
2023-01-27T03:30:23.442Z,99902.49
2023-01-27T03:33:03.697Z,99902.34
2023-01-27T03:35:49.794Z,99897.71
2023-01-27T03:38:39.998Z,99889.52
2023-01-27T03:41:27.311Z,99888.89
2023-01-27T03:44:14.637Z,99889.06
2023-01-27T03:46:43.224Z,99892.40
2023-01-27T03:49:11.608Z,99889.24
2023-01-27T03:51:39.985Z,99887.91
2023-01-27T03:54:10.008Z,99894.88
2023-01-27T03:56:39.620Z,99897.65
2023-01-27T03:59:07.995Z,99899.03
2023-01-27T04:01:36.446Z,99898.45
2023-01-27T04:04:23.904Z,99900.77
2023-01-27T04:06:52.291Z,99902.45
2023-01-27T04:09:20.974Z,99899.11
2023-01-27T04:11:55.316Z,99901.35
2023-01-27T04:14:30.738Z,99901.30
2023-01-27T04:17:04.447Z,99894.79
2023-01-27T04:19:33.530Z,99895.70
2023-01-27T04:22:02.069Z,99892.98
2023-01-27T04:24:34.299Z,99893.93
2023-01-27T04:27:05.138Z,99899.20
2023-01-27T04:29:35.141Z,99898.95
2023-01-27T04:32:08.552Z,99899.83
2023-01-27T04:34:37.147Z,99905.36
2023-01-27T04:37:07.165Z,99901.38
2023-01-27T04:39:35.748Z,99901.98
2023-01-27T04:42:04.199Z,99908.55
2023-01-27T04:44:33.423Z,99910.42
2023-01-27T04:47:01.808Z,99908.60
2023-01-27T04:49:31.106Z,99908.52
2023-01-27T04:51:59.486Z,99912.27
2023-01-27T04:54:27.875Z,99912.13
2023-01-27T04:56:58.857Z,99909.45
2023-01-27T04:59:27.425Z,99908.35
2023-01-27T05:01:55.961Z,99905.55
2023-01-27T05:04:27.396Z,99903.40
2023-01-27T05:06:56.422Z,99898.41
2023-01-27T05:09:25.316Z,99904.88
2023-01-27T05:11:54.107Z,99902.52
2023-01-27T05:14:23.866Z,99903.64
2023-01-27T05:16:52.562Z,99902.45
2023-01-27T05:19:20.991Z,99903.19
2023-01-27T05:21:49.778Z,99903.91
2023-01-27T05:24:18.202Z,99900.94
2023-01-27T05:26:47.071Z,99904.45
2023-01-27T05:29:16.047Z,99907.30
2023-01-27T05:31:45.207Z,99904.37
2023-01-27T05:34:13.936Z,99904.48
2023-01-27T05:36:42.416Z,99904.77
2023-01-27T05:39:11.515Z,99912.34
2023-01-27T05:41:39.997Z,99909.93
2023-01-27T10:23:41.681Z,99893.70
2023-01-27T10:26:41.864Z,99890.38
2023-01-27T10:29:12.394Z,99885.05
2023-01-27T10:31:49.036Z,99884.48
2023-01-27T10:34:23.592Z,99879.90
2023-01-27T10:37:04.671Z,99872.44
2023-01-27T10:39:53.123Z,99871.40
2023-01-27T10:42:41.572Z,99867.50
2023-01-27T10:45:28.077Z,99862.08
2023-01-27T10:48:28.102Z,99859.23
2023-01-27T10:51:02.525Z,99855.04
2023-01-27T10:53:46.467Z,99852.73
2023-01-27T10:56:19.658Z,99852.75
2023-01-27T10:58:57.257Z,99852.58
2023-01-27T11:01:32.133Z,99852.05
2023-01-27T11:04:16.656Z,99852.85
2023-01-27T11:06:45.232Z,99853.64
2023-01-27T11:09:40.137Z,99845.30
2023-01-27T11:12:12.939Z,99847.05
2023-01-27T11:14:46.118Z,99853.10
2023-01-27T11:17:51.779Z,99849.15
2023-01-27T11:20:20.156Z,99851.39
2023-01-27T11:22:59.595Z,99848.52
2023-01-27T11:25:30.135Z,99845.80
2023-01-27T11:28:06.191Z,99850.65
2023-01-27T11:30:48.842Z,99856.70
2023-01-27T11:33:25.886Z,99858.48
2023-01-27T11:35:54.268Z,99856.93
2023-01-27T11:38:25.616Z,99851.10
2023-01-27T11:40:54.406Z,99850.08
2023-01-27T11:43:24.663Z,99846.19
2023-01-27T11:45:58.275Z,99848.28
2023-01-27T11:48:27.225Z,99846.28
2023-01-27T11:50:55.707Z,99843.14
2023-01-27T11:53:27.770Z,99842.61
2023-01-27T11:56:00.761Z,99845.36
2023-01-27T11:58:49.948Z,99836.79
2023-01-27T12:01:20.968Z,99831.70
2023-01-27T12:04:07.613Z,99826.31
2023-01-27T12:06:41.482Z,99829.72
2023-01-27T12:09:38.849Z,99830.02
2023-01-27T12:12:16.443Z,99832.58
2023-01-27T12:14:49.321Z,99834.06
2023-01-27T12:17:41.157Z,99836.73
2023-01-27T12:20:22.137Z,99835.59
2023-01-27T12:22:53.585Z,99832.27
2023-01-27T12:25:28.208Z,99834.25
2023-01-27T12:28:03.076Z,99825.98
2023-01-27T12:30:35.414Z,99817.58
2023-01-27T12:33:13.617Z,99811.01
2023-01-27T12:35:42.406Z,99804.39
2023-01-27T12:38:17.263Z,99804.63
2023-01-27T12:40:47.463Z,99801.64
2023-01-27T12:43:17.683Z,99799.18
2023-01-27T12:45:46.063Z,99798.34
2023-01-27T12:48:18.213Z,99802.42
2023-01-27T12:50:55.519Z,99809.37
2023-01-27T12:53:28.308Z,99809.80
2023-01-27T12:56:11.458Z,99813.55
2023-01-27T12:58:55.067Z,99806.71
2023-01-27T13:01:30.520Z,99809.85
2023-01-27T13:04:05.309Z,99810.94
2023-01-27T13:06:43.764Z,99808.88
2023-01-27T13:09:27.806Z,99810.50
2023-01-27T13:11:57.723Z,99807.69
2023-01-27T13:14:29.484Z,99809.41
2023-01-27T13:17:01.451Z,99808.10
2023-01-27T13:19:37.092Z,99809.41
2023-01-27T13:22:05.683Z,99806.09
2023-01-27T13:24:42.140Z,99803.73
2023-01-27T13:27:18.161Z,99804.45
2023-01-27T13:29:58.171Z,99809.02
2023-01-27T13:32:28.389Z,99806.85
2023-01-27T13:35:17.690Z,99805.99
2023-01-27T13:38:03.450Z,99803.64
2023-01-27T13:40:41.459Z,99807.89
2023-01-27T13:43:32.986Z,99808.67
2023-01-27T13:46:22.018Z,99808.11
2023-01-27T19:58:46.804Z,99894.15
2023-01-27T20:01:14.133Z,99894.57
2023-01-27T20:03:41.564Z,99897.02
2023-01-27T20:06:21.932Z,99894.04
2023-01-27T20:08:56.156Z,99891.84
2023-01-27T20:11:26.265Z,99892.05
2023-01-27T20:13:53.316Z,99890.40
2023-01-27T20:16:20.590Z,99884.35
2023-01-27T20:18:47.922Z,99881.16
2023-01-27T20:21:15.173Z,99878.23
2023-01-27T20:23:42.224Z,99877.61
2023-01-27T20:26:13.219Z,99878.44
2023-01-27T20:28:40.211Z,99879.08
2023-01-27T20:31:11.623Z,99879.61
2023-01-27T20:33:38.817Z,99879.40
2023-01-27T20:36:07.630Z,99880.35
2023-01-27T20:38:34.731Z,99878.70
2023-01-27T20:41:07.803Z,99875.04
2023-01-27T20:43:35.663Z,99871.52
2023-01-27T20:46:04.957Z,99872.06
2023-01-27T20:48:32.890Z,99874.34
2023-01-27T20:51:00.854Z,99872.23
2023-01-27T20:53:31.183Z,99874.24
2023-01-27T20:56:01.098Z,99877.55
2023-01-27T20:58:27.944Z,99879.02
2023-01-27T21:01:15.551Z,99879.30
2023-01-27T21:03:42.729Z,99875.24
2023-01-27T21:06:11.034Z,99879.30
2023-01-27T21:08:38.169Z,99877.21
2023-01-27T21:11:10.941Z,99875.39
2023-01-27T21:13:38.200Z,99874.45
2023-01-27T21:16:05.782Z,99869.96
2023-01-27T21:18:33.220Z,99864.79
2023-01-27T21:21:03.548Z,99865.42
2023-01-27T21:23:32.153Z,99864.36
2023-01-27T21:26:04.127Z,99866.60
2023-01-27T21:28:33.063Z,99858.89
2023-01-27T21:31:07.151Z,99858.14
2023-01-27T21:33:35.724Z,99860.83
2023-01-27T21:36:03.970Z,99863.55
2023-01-27T21:38:32.413Z,99868.52
2023-01-27T21:41:11.713Z,99868.45
2023-01-27T21:43:57.161Z,99864.38
2023-01-27T21:46:24.126Z,99866.20
2023-01-27T21:48:51.297Z,99869.23
2023-01-27T21:51:19.040Z,99869.23
2023-01-27T21:53:46.192Z,99863.51
2023-01-27T21:56:13.140Z,99860.36
2023-01-27T21:58:40.511Z,99861.05
2023-01-27T22:01:08.940Z,99855.52
2023-01-27T22:03:36.334Z,99848.65
